Wind From: 13-12-2017 10:08 Until: 14-12-2017 06:00 warning for: Wind Level: Yellow info button

Although rather usual in this region, locally or potentially dangerous phenomena are expected. (such as local winds, summer thunderstorms, rising streams or high waves) Be aware and pay attention to the latest weather updates, especially if you carry out activities exposed to weather or close to a stream or shoreline. 


Meteo18 Weather Cam more information Meteo18 Weather Cam


Thunder radar more information blitzortung!


Rain radar more information rain snow radar


Visit our other weather sites:

Template documentation
and downloads

And another site



Weather Underground History page Text

Daily Summary for January 12, 2017 Units:  Both    English   Metric
« Previous Day
Next Day »
Daily Weekly Monthly Yearly Custom
  High: Low: Average:
Temperature: 50 °F /  10.0 °C 40.5 °F /  4.7 °C 43.9 °F /  6.6 °C
Dew Point: 46.4 °F /  8.0 °C 34.9 °F /  1.6 °C 41.4 °F /  5.2 °C
Humidity: 97 % 72 % 91 %
Wind Speed: 32 mph /  51.5 km/h - 7.1 mph /  11.4 km/h
Wind Gust: 45 mph /  72.4 km/h - -
Wind:- - SW
Pressure: 30.2 in /  1021.6 hPa 29.5 in /  1000.2 hPa -
Precipitation: 0.21 in /  5.3 mm    
Historical Graphs
 
 
Tabular Data for January 12, 2017
Time Temperature Dew Point Pressure Wind Wind Speed Wind Gust Humidity Rainfall Rate (Hourly)
00:02 45.9 °F /  7.7 °C 41.5 °F /  5.3 °C 30.2 in /  1021.2 hPa WNW 5 mph /  8.0 km/h 6 mph /  9.7 km/h 85 % 0 in /  0.0 mm
00:07 45.9 °F /  7.7 °C 41.4 °F /  5.2 °C 30.2 in /  1021.2 hPa WNW 5 mph /  8.0 km/h 9 mph /  14.5 km/h 84 % 0 in /  0.0 mm
00:12 45.9 °F /  7.7 °C 41.4 °F /  5.2 °C 30.2 in /  1021.2 hPa West 3 mph /  4.8 km/h 9 mph /  14.5 km/h 84 % 0 in /  0.0 mm
00:17 45.9 °F /  7.7 °C 41.4 °F /  5.2 °C 30.2 in /  1021.2 hPa West 3 mph /  4.8 km/h 9 mph /  14.5 km/h 84 % 0 in /  0.0 mm
00:22 45.9 °F /  7.7 °C 41.4 °F /  5.2 °C 30.2 in /  1021.2 hPa West 6 mph /  9.7 km/h 8 mph /  12.9 km/h 84 % 0 in /  0.0 mm
00:27 45.9 °F /  7.7 °C 41.4 °F /  5.2 °C 30.2 in /  1020.9 hPa WSW 2 mph /  3.2 km/h 6 mph /  9.7 km/h 84 % 0 in /  0.0 mm
00:32 45.7 °F /  7.6 °C 41.2 °F /  5.1 °C 30.2 in /  1021.2 hPa WSW 4 mph /  6.4 km/h 7 mph /  11.3 km/h 84 % 0 in /  0.0 mm
00:37 45.7 °F /  7.6 °C 41.4 °F /  5.2 °C 30.2 in /  1021.2 hPa WSW 4 mph /  6.4 km/h 7 mph /  11.3 km/h 85 % 0 in /  0.0 mm
00:42 45.7 °F /  7.6 °C 41.4 °F /  5.2 °C 30.2 in /  1021.6 hPa WSW 3 mph /  4.8 km/h 6 mph /  9.7 km/h 85 % 0 in /  0.0 mm
00:47 45.5 °F /  7.5 °C 41.5 °F /  5.3 °C 30.2 in /  1021.6 hPa SW 3 mph /  4.8 km/h 6 mph /  9.7 km/h 86 % 0 in /  0.0 mm
00:52 45.5 °F /  7.5 °C 41.5 °F /  5.3 °C 30.2 in /  1021.2 hPa WSW 7 mph /  11.3 km/h 7 mph /  11.3 km/h 86 % 0 in /  0.0 mm
01:02 45.5 °F /  7.5 °C 41.5 °F /  5.3 °C 30.2 in /  1020.9 hPa SW 2 mph /  3.2 km/h 7 mph /  11.3 km/h 86 % 0 in /  0.0 mm
01:12 45.3 °F /  7.4 °C 41.7 °F /  5.4 °C 30.2 in /  1020.9 hPa SW 2 mph /  3.2 km/h 7 mph /  11.3 km/h 87 % 0 in /  0.0 mm
01:17 45.1 °F /  7.3 °C 41.5 °F /  5.3 °C 30.2 in /  1021.2 hPa West 2 mph /  3.2 km/h 7 mph /  11.3 km/h 87 % 0 in /  0.0 mm
01:22 45.1 °F /  7.3 °C 41.7 °F /  5.4 °C 30.2 in /  1020.9 hPa WSW 5 mph /  8.0 km/h 7 mph /  11.3 km/h 88 % 0 in /  0.0 mm
01:27 45.1 °F /  7.3 °C 41.7 °F /  5.4 °C 30.2 in /  1020.9 hPa WSW 6 mph /  9.7 km/h 7 mph /  11.3 km/h 88 % 0 in /  0.0 mm
01:32 45 °F /  7.2 °C 41.5 °F /  5.3 °C 30.2 in /  1020.9 hPa SW 3 mph /  4.8 km/h 7 mph /  11.3 km/h 88 % 0 in /  0.0 mm
01:37 45 °F /  7.2 °C 41.5 °F /  5.3 °C 30.2 in /  1020.9 hPa WSW 5 mph /  8.0 km/h 7 mph /  11.3 km/h 88 % 0 in /  0.0 mm
01:42 44.8 °F /  7.1 °C 41.7 °F /  5.4 °C 30.2 in /  1020.9 hPa West 3 mph /  4.8 km/h 7 mph /  11.3 km/h 89 % 0 in /  0.0 mm
01:52 44.8 °F /  7.1 °C 41.7 °F /  5.4 °C 30.2 in /  1020.9 hPa WSW 2 mph /  3.2 km/h 7 mph /  11.3 km/h 89 % 0 in /  0.0 mm
01:57 44.6 °F /  7.0 °C 41.5 °F /  5.3 °C 30.2 in /  1021.2 hPa West 3 mph /  4.8 km/h 5 mph /  8.0 km/h 89 % 0 in /  0.0 mm
02:02 44.4 °F /  6.9 °C 41.7 °F /  5.4 °C 30.2 in /  1021.6 hPa WNW 4 mph /  6.4 km/h 5 mph /  8.0 km/h 90 % 0 in /  0.0 mm
02:12 44.4 °F /  6.9 °C 41.7 °F /  5.4 °C 30.2 in /  1021.2 hPa WSW 5 mph /  8.0 km/h 6 mph /  9.7 km/h 90 % 0 in /  0.0 mm
02:17 44.4 °F /  6.9 °C 41.9 °F /  5.5 °C 30.2 in /  1021.2 hPa West 3 mph /  4.8 km/h 6 mph /  9.7 km/h 91 % 0 in /  0.0 mm
02:22 44.2 °F /  6.8 °C 41.7 °F /  5.4 °C 30.2 in /  1021.2 hPa West 2 mph /  3.2 km/h 6 mph /  9.7 km/h 91 % 0 in /  0.0 mm
02:27 44.2 °F /  6.8 °C 42.1 °F /  5.6 °C 30.2 in /  1021.6 hPa West 4 mph /  6.4 km/h 6 mph /  9.7 km/h 92 % 0 in /  0.0 mm
02:32 44.2 °F /  6.8 °C 42.1 °F /  5.6 °C 30.2 in /  1021.2 hPa West 3 mph /  4.8 km/h 8 mph /  12.9 km/h 92 % 0 in /  0.0 mm
02:37 44.2 °F /  6.8 °C 42.1 °F /  5.6 °C 30.2 in /  1021.2 hPa West 3 mph /  4.8 km/h 8 mph /  12.9 km/h 92 % 0 in /  0.0 mm
02:42 44.2 °F /  6.8 °C 42.1 °F /  5.6 °C 30.2 in /  1021.2 hPa West 4 mph /  6.4 km/h 8 mph /  12.9 km/h 92 % 0 in /  0.0 mm
02:52 44.2 °F /  6.8 °C 42.1 °F /  5.6 °C 30.2 in /  1021.2 hPa WSW 3 mph /  4.8 km/h 7 mph /  11.3 km/h 92 % 0 in /  0.0 mm
02:57 44.2 °F /  6.8 °C 42.1 °F /  5.6 °C 30.2 in /  1021.2 hPa West 2 mph /  3.2 km/h 8 mph /  12.9 km/h 92 % 0 in /  0.0 mm
03:02 44.2 °F /  6.8 °C 42.1 °F /  5.6 °C 30.2 in /  1021.2 hPa West 3 mph /  4.8 km/h 8 mph /  12.9 km/h 92 % 0 in /  0.0 mm
03:07 44.2 °F /  6.8 °C 41.7 °F /  5.4 °C 30.2 in /  1021.2 hPa WSW 3 mph /  4.8 km/h 6 mph /  9.7 km/h 91 % 0 in /  0.0 mm
03:12 44.2 °F /  6.8 °C 41.7 °F /  5.4 °C 30.2 in /  1021.2 hPa West 4 mph /  6.4 km/h 6 mph /  9.7 km/h 91 % 0 in /  0.0 mm
03:17 44.2 °F /  6.8 °C 41.7 °F /  5.4 °C 30.2 in /  1021.6 hPa WSW 4 mph /  6.4 km/h 6 mph /  9.7 km/h 91 % 0 in /  0.0 mm
03:22 44.2 °F /  6.8 °C 41.7 °F /  5.4 °C 30.2 in /  1021.2 hPa West 4 mph /  6.4 km/h 6 mph /  9.7 km/h 91 % 0 in /  0.0 mm
03:32 44.1 °F /  6.7 °C 41.5 °F /  5.3 °C 30.2 in /  1021.2 hPa WSW 4 mph /  6.4 km/h 8 mph /  12.9 km/h 91 % 0 in /  0.0 mm
03:37 44.1 °F /  6.7 °C 41.5 °F /  5.3 °C 30.2 in /  1021.2 hPa West 4 mph /  6.4 km/h 6 mph /  9.7 km/h 91 % 0 in /  0.0 mm
03:42 44.1 °F /  6.7 °C 41.5 °F /  5.3 °C 30.2 in /  1021.2 hPa WSW 4 mph /  6.4 km/h 6 mph /  9.7 km/h 91 % 0 in /  0.0 mm
03:47 43.9 °F /  6.6 °C 41.4 °F /  5.2 °C 30.2 in /  1021.2 hPa WSW 2 mph /  3.2 km/h 6 mph /  9.7 km/h 91 % 0 in /  0.0 mm
03:52 43.9 °F /  6.6 °C 41.4 °F /  5.2 °C 30.2 in /  1021.2 hPa WNW 1 mph /  1.6 km/h 6 mph /  9.7 km/h 91 % 0 in /  0.0 mm
03:57 43.9 °F /  6.6 °C 41.7 °F /  5.4 °C 30.2 in /  1021.2 hPa WSW 2 mph /  3.2 km/h 5 mph /  8.0 km/h 92 % 0 in /  0.0 mm
04:02 43.9 °F /  6.6 °C 41.4 °F /  5.2 °C 30.2 in /  1021.2 hPa SW 2 mph /  3.2 km/h 5 mph /  8.0 km/h 91 % 0 in /  0.0 mm
04:12 43.7 °F /  6.5 °C 41.5 °F /  5.3 °C 30.2 in /  1020.9 hPa WSW 3 mph /  4.8 km/h 5 mph /  8.0 km/h 92 % 0 in /  0.0 mm
04:17 43.5 °F /  6.4 °C 41.4 °F /  5.2 °C 30.2 in /  1020.9 hPa WSW 3 mph /  4.8 km/h 6 mph /  9.7 km/h 92 % 0 in /  0.0 mm
04:22 43.3 °F /  6.3 °C 41.2 °F /  5.1 °C 30.2 in /  1020.9 hPa SW 2 mph /  3.2 km/h 6 mph /  9.7 km/h 92 % 0 in /  0.0 mm
04:27 43.3 °F /  6.3 °C 41.2 °F /  5.1 °C 30.2 in /  1020.9 hPa SW 2 mph /  3.2 km/h 6 mph /  9.7 km/h 92 % 0 in /  0.0 mm
04:32 43.2 °F /  6.2 °C 41 °F /  5.0 °C 30.2 in /  1020.9 hPa SW 1 mph /  1.6 km/h 6 mph /  9.7 km/h 92 % 0 in /  0.0 mm
04:37 43.2 °F /  6.2 °C 41.4 °F /  5.2 °C 30.2 in /  1020.9 hPa SW 1 mph /  1.6 km/h 4 mph /  6.4 km/h 93 % 0 in /  0.0 mm
04:42 43.2 °F /  6.2 °C 41.4 °F /  5.2 °C 30.2 in /  1020.9 hPa WSW 1 mph /  1.6 km/h 4 mph /  6.4 km/h 93 % 0 in /  0.0 mm
04:47 43 °F /  6.1 °C 41.2 °F /  5.1 °C 30.2 in /  1020.9 hPa SW 2 mph /  3.2 km/h 3 mph /  4.8 km/h 93 % 0 in /  0.0 mm
04:52 43 °F /  6.1 °C 41.2 °F /  5.1 °C 30.1 in /  1020.5 hPa SW 2 mph /  3.2 km/h 3 mph /  4.8 km/h 93 % 0 in /  0.0 mm
04:57 42.8 °F /  6.0 °C 41 °F /  5.0 °C 30.1 in /  1020.5 hPa Calm   3 mph /  4.8 km/h 93 % 0 in /  0.0 mm
05:02 42.6 °F /  5.9 °C 40.8 °F /  4.9 °C 30.1 in /  1020.5 hPa West 2 mph /  3.2 km/h 3 mph /  4.8 km/h 93 % 0 in /  0.0 mm
05:07 42.6 °F /  5.9 °C 40.8 °F /  4.9 °C 30.1 in /  1020.5 hPa WSW 2 mph /  3.2 km/h 4 mph /  6.4 km/h 93 % 0 in /  0.0 mm
05:12 42.6 °F /  5.9 °C 40.8 °F /  4.9 °C 30.1 in /  1020.5 hPa West 1 mph /  1.6 km/h 4 mph /  6.4 km/h 93 % 0 in /  0.0 mm
05:17 42.6 °F /  5.9 °C 40.8 °F /  4.9 °C 30.2 in /  1020.9 hPa WSW 1 mph /  1.6 km/h 4 mph /  6.4 km/h 93 % 0 in /  0.0 mm
05:22 42.6 °F /  5.9 °C 40.8 °F /  4.9 °C 30.1 in /  1020.5 hPa West 2 mph /  3.2 km/h 3 mph /  4.8 km/h 93 % 0 in /  0.0 mm
05:27 42.4 °F /  5.8 °C 40.6 °F /  4.8 °C 30.1 in /  1020.5 hPa West 1 mph /  1.6 km/h 4 mph /  6.4 km/h 93 % 0 in /  0.0 mm
05:32 42.4 °F /  5.8 °C 40.6 °F /  4.8 °C 30.2 in /  1020.9 hPa WSW 2 mph /  3.2 km/h 4 mph /  6.4 km/h 93 % 0 in /  0.0 mm
05:37 42.4 °F /  5.8 °C 40.6 °F /  4.8 °C 30.2 in /  1020.9 hPa West 1 mph /  1.6 km/h 4 mph /  6.4 km/h 93 % 0 in /  0.0 mm
05:42 42.4 °F /  5.8 °C 40.6 °F /  4.8 °C 30.2 in /  1020.9 hPa West 1 mph /  1.6 km/h 3 mph /  4.8 km/h 93 % 0 in /  0.0 mm
05:52 42.4 °F /  5.8 °C 40.6 °F /  4.8 °C 30.1 in /  1020.5 hPa WNW 2 mph /  3.2 km/h 4 mph /  6.4 km/h 93 % 0 in /  0.0 mm
05:57 42.4 °F /  5.8 °C 40.6 °F /  4.8 °C 30.1 in /  1020.5 hPa WNW 1 mph /  1.6 km/h 3 mph /  4.8 km/h 93 % 0 in /  0.0 mm
06:02 42.4 °F /  5.8 °C 40.6 °F /  4.8 °C 30.1 in /  1020.2 hPa Calm   2 mph /  3.2 km/h 93 % 0 in /  0.0 mm
06:12 42.4 °F /  5.8 °C 40.6 °F /  4.8 °C 30.1 in /  1020.2 hPa Calm   2 mph /  3.2 km/h 93 % 0 in /  0.0 mm
06:17 42.4 °F /  5.8 °C 40.6 °F /  4.8 °C 30.1 in /  1019.9 hPa Calm   2 mph /  3.2 km/h 93 % 0 in /  0.0 mm
06:22 42.4 °F /  5.8 °C 40.6 °F /  4.8 °C 30.1 in /  1020.2 hPa SW 1 mph /  1.6 km/h 1 mph /  1.6 km/h 93 % 0 in /  0.0 mm
06:27 42.1 °F /  5.6 °C 40.3 °F /  4.6 °C 30.1 in /  1020.2 hPa SSW 1 mph /  1.6 km/h 1 mph /  1.6 km/h 93 % 0 in /  0.0 mm
06:32 41.9 °F /  5.5 °C 40.3 °F /  4.6 °C 30.1 in /  1020.2 hPa SW 1 mph /  1.6 km/h 2 mph /  3.2 km/h 94 % 0 in /  0.0 mm
06:37 41.9 °F /  5.5 °C 40.3 °F /  4.6 °C 30.1 in /  1020.2 hPa SSW 1 mph /  1.6 km/h 2 mph /  3.2 km/h 94 % 0 in /  0.0 mm
06:42 41.9 °F /  5.5 °C 40.3 °F /  4.6 °C 30.1 in /  1020.2 hPa SW 1 mph /  1.6 km/h 3 mph /  4.8 km/h 94 % 0 in /  0.0 mm
06:47 41.7 °F /  5.4 °C 40.1 °F /  4.5 °C 30.1 in /  1019.9 hPa SSW 1 mph /  1.6 km/h 3 mph /  4.8 km/h 94 % 0 in /  0.0 mm
06:52 41.5 °F /  5.3 °C 39.9 °F /  4.4 °C 30.1 in /  1020.2 hPa SW 1 mph /  1.6 km/h 2 mph /  3.2 km/h 94 % 0 in /  0.0 mm
06:57 41.5 °F /  5.3 °C 40.3 °F /  4.6 °C 30.1 in /  1019.9 hPa Calm   2 mph /  3.2 km/h 95 % 0 in /  0.0 mm
07:02 41.5 °F /  5.3 °C 40.3 °F /  4.6 °C 30.1 in /  1019.9 hPa Calm   3 mph /  4.8 km/h 95 % 0 in /  0.0 mm
07:07 41.5 °F /  5.3 °C 40.3 °F /  4.6 °C 30.1 in /  1019.9 hPa Calm   3 mph /  4.8 km/h 95 % 0 in /  0.0 mm
07:12 41.7 °F /  5.4 °C 40.5 °F /  4.7 °C 30.1 in /  1019.9 hPa Calm   3 mph /  4.8 km/h 95 % 0 in /  0.0 mm
07:17 41.7 °F /  5.4 °C 40.5 °F /  4.7 °C 30.1 in /  1020.2 hPa Calm   1 mph /  1.6 km/h 95 % 0 in /  0.0 mm
07:22 41.7 °F /  5.4 °C 40.1 °F /  4.5 °C 30.1 in /  1019.9 hPa Calm   1 mph /  1.6 km/h 94 % 0 in /  0.0 mm
07:27 41.5 °F /  5.3 °C 39.9 °F /  4.4 °C 30.1 in /  1020.2 hPa Calm   1 mph /  1.6 km/h 94 % 0 in /  0.0 mm
07:32 41.4 °F /  5.2 °C 39.7 °F /  4.3 °C 30.1 in /  1020.2 hPa Calm   1 mph /  1.6 km/h 94 % 0 in /  0.0 mm
07:37 41.2 °F /  5.1 °C 39.6 °F /  4.2 °C 30.1 in /  1019.9 hPa Calm     94 % 0 in /  0.0 mm
07:42 40.8 °F /  4.9 °C 39.6 °F /  4.2 °C 30.1 in /  1019.9 hPa Calm     95 % 0 in /  0.0 mm
07:47 40.8 °F /  4.9 °C 39.6 °F /  4.2 °C 30.1 in /  1019.9 hPa SSW 1 mph /  1.6 km/h   95 % 0 in /  0.0 mm
07:52 40.6 °F /  4.8 °C 39.4 °F /  4.1 °C 30.1 in /  1019.5 hPa SSW 1 mph /  1.6 km/h 1 mph /  1.6 km/h 95 % 0 in /  0.0 mm
07:57 40.6 °F /  4.8 °C 39.6 °F /  4.2 °C 30.1 in /  1019.5 hPa SSW 1 mph /  1.6 km/h 2 mph /  3.2 km/h 96 % 0 in /  0.0 mm
08:02 40.5 °F /  4.7 °C 39.4 °F /  4.1 °C 30.1 in /  1019.5 hPa SW 3 mph /  4.8 km/h 3 mph /  4.8 km/h 96 % 0 in /  0.0 mm
08:07 40.6 °F /  4.8 °C 39.6 °F /  4.2 °C 30.1 in /  1019.5 hPa SW 3 mph /  4.8 km/h 4 mph /  6.4 km/h 96 % 0 in /  0.0 mm
08:12 40.8 °F /  4.9 °C 40.1 °F /  4.5 °C 30.1 in /  1019.9 hPa SW 3 mph /  4.8 km/h 5 mph /  8.0 km/h 97 % 0 in /  0.0 mm
08:17 41 °F /  5.0 °C 39.9 °F /  4.4 °C 30.1 in /  1019.5 hPa SW 2 mph /  3.2 km/h 5 mph /  8.0 km/h 96 % 0 in /  0.0 mm
08:22 41.2 °F /  5.1 °C 40.1 °F /  4.5 °C 30.1 in /  1019.5 hPa West 1 mph /  1.6 km/h 6 mph /  9.7 km/h 96 % 0 in /  0.0 mm
08:27 41.2 °F /  5.1 °C 40.1 °F /  4.5 °C 30.1 in /  1019.5 hPa SW 1 mph /  1.6 km/h 6 mph /  9.7 km/h 96 % 0 in /  0.0 mm
08:32 41.2 °F /  5.1 °C 40.1 °F /  4.5 °C 30.1 in /  1019.5 hPa SW 1 mph /  1.6 km/h 6 mph /  9.7 km/h 96 % 0 in /  0.0 mm
08:37 41.2 °F /  5.1 °C 40.1 °F /  4.5 °C 30.1 in /  1019.5 hPa SW 5 mph /  8.0 km/h 6 mph /  9.7 km/h 96 % 0 in /  0.0 mm
08:42 41.2 °F /  5.1 °C 40.1 °F /  4.5 °C 30.1 in /  1019.5 hPa SW 2 mph /  3.2 km/h 5 mph /  8.0 km/h 96 % 0 in /  0.0 mm
08:52 41.2 °F /  5.1 °C 40.1 °F /  4.5 °C 30.1 in /  1019.2 hPa West 3 mph /  4.8 km/h 6 mph /  9.7 km/h 96 % 0 in /  0.0 mm
08:57 41.2 °F /  5.1 °C 40.1 °F /  4.5 °C 30.1 in /  1019.2 hPa SW 4 mph /  6.4 km/h 6 mph /  9.7 km/h 96 % 0 in /  0.0 mm
09:02 41.2 °F /  5.1 °C 40.1 °F /  4.5 °C 30.1 in /  1019.5 hPa SW 5 mph /  8.0 km/h 7 mph /  11.3 km/h 96 % 0 in /  0.0 mm
09:07 41.2 °F /  5.1 °C 40.1 °F /  4.5 °C 30.1 in /  1019.5 hPa SW 5 mph /  8.0 km/h 8 mph /  12.9 km/h 96 % 0 in /  0.0 mm
09:12 41.2 °F /  5.1 °C 39.9 °F /  4.4 °C 30.1 in /  1019.5 hPa SW 6 mph /  9.7 km/h 8 mph /  12.9 km/h 95 % 0 in /  0.0 mm
09:17 41 °F /  5.0 °C 39.7 °F /  4.3 °C 30.1 in /  1019.5 hPa SW 4 mph /  6.4 km/h 8 mph /  12.9 km/h 95 % 0 in /  0.0 mm
09:22 41 °F /  5.0 °C 39.9 °F /  4.4 °C 30.1 in /  1019.5 hPa SW 4 mph /  6.4 km/h 8 mph /  12.9 km/h 96 % 0 in /  0.0 mm
09:27 40.8 °F /  4.9 °C 39.7 °F /  4.3 °C 30.1 in /  1019.5 hPa SW 3 mph /  4.8 km/h 8 mph /  12.9 km/h 96 % 0 in /  0.0 mm
09:32 40.8 °F /  4.9 °C 39.7 °F /  4.3 °C 30.1 in /  1019.5 hPa SSW 3 mph /  4.8 km/h 7 mph /  11.3 km/h 96 % 0 in /  0.0 mm
09:37 40.8 °F /  4.9 °C 39.7 °F /  4.3 °C 30.1 in /  1019.9 hPa WSW 2 mph /  3.2 km/h 6 mph /  9.7 km/h 96 % 0 in /  0.0 mm
09:42 40.8 °F /  4.9 °C 39.7 °F /  4.3 °C 30.1 in /  1019.5 hPa SW 4 mph /  6.4 km/h 6 mph /  9.7 km/h 96 % 0 in /  0.0 mm
09:47 41 °F /  5.0 °C 39.9 °F /  4.4 °C 30.1 in /  1019.5 hPa WSW 4 mph /  6.4 km/h 6 mph /  9.7 km/h 96 % 0 in /  0.0 mm
09:52 41.2 °F /  5.1 °C 40.1 °F /  4.5 °C 30.1 in /  1019.5 hPa WSW 6 mph /  9.7 km/h 6 mph /  9.7 km/h 96 % 0 in /  0.0 mm
09:57 41.2 °F /  5.1 °C 40.1 °F /  4.5 °C 30.1 in /  1019.5 hPa SW 2 mph /  3.2 km/h 7 mph /  11.3 km/h 96 % 0 in /  0.0 mm
10:02 41.2 °F /  5.1 °C 39.9 °F /  4.4 °C 30.1 in /  1019.5 hPa WSW 2 mph /  3.2 km/h 7 mph /  11.3 km/h 95 % 0 in /  0.0 mm
10:12 41.4 °F /  5.2 °C 40.1 °F /  4.5 °C 30.1 in /  1019.2 hPa SW 5 mph /  8.0 km/h 8 mph /  12.9 km/h 95 % 0 in /  0.0 mm
10:22 41.4 °F /  5.2 °C 40.3 °F /  4.6 °C 30.1 in /  1018.8 hPa SSW 2 mph /  3.2 km/h 7 mph /  11.3 km/h 96 % 0 in /  0.0 mm
10:27 41.4 °F /  5.2 °C 40.3 °F /  4.6 °C 30.1 in /  1018.8 hPa SW 5 mph /  8.0 km/h 7 mph /  11.3 km/h 96 % 0 in /  0.0 mm
10:32 41.4 °F /  5.2 °C 40.3 °F /  4.6 °C 30.1 in /  1018.8 hPa SW 4 mph /  6.4 km/h 7 mph /  11.3 km/h 96 % 0 in /  0.0 mm
10:37 41.4 °F /  5.2 °C 40.3 °F /  4.6 °C 30.1 in /  1018.8 hPa SW 6 mph /  9.7 km/h 6 mph /  9.7 km/h 96 % 0 in /  0.0 mm
10:42 41.5 °F /  5.3 °C 40.5 °F /  4.7 °C 30.1 in /  1018.8 hPa SW 4 mph /  6.4 km/h 7 mph /  11.3 km/h 96 % 0 in /  0.0 mm
10:47 41.7 °F /  5.4 °C 40.6 °F /  4.8 °C 30.1 in /  1018.8 hPa SW 4 mph /  6.4 km/h 7 mph /  11.3 km/h 96 % 0 in /  0.0 mm
10:52 41.7 °F /  5.4 °C 40.6 °F /  4.8 °C 30.1 in /  1018.8 hPa SW 4 mph /  6.4 km/h 7 mph /  11.3 km/h 96 % 0 in /  0.0 mm
10:57 42.1 °F /  5.6 °C 40.8 °F /  4.9 °C 30.1 in /  1018.8 hPa SW 4 mph /  6.4 km/h 7 mph /  11.3 km/h 95 % 0 in /  0.0 mm
11:02 42.1 °F /  5.6 °C 40.8 °F /  4.9 °C 30.1 in /  1018.8 hPa SW 3 mph /  4.8 km/h 7 mph /  11.3 km/h 95 % 0 in /  0.0 mm
11:12 42.4 °F /  5.8 °C 41.2 °F /  5.1 °C 30.1 in /  1018.2 hPa SSW 4 mph /  6.4 km/h 6 mph /  9.7 km/h 95 % 0 in /  0.0 mm
11:17 42.6 °F /  5.9 °C 41.4 °F /  5.2 °C 30.1 in /  1018.2 hPa SSW 2 mph /  3.2 km/h 6 mph /  9.7 km/h 95 % 0 in /  0.0 mm
11:27 43 °F /  6.1 °C 41.7 °F /  5.4 °C 30.1 in /  1018.2 hPa SW 3 mph /  4.8 km/h 6 mph /  9.7 km/h 95 % 0 in /  0.0 mm
11:32 43.2 °F /  6.2 °C 41.9 °F /  5.5 °C 30.1 in /  1017.8 hPa SSW 1 mph /  1.6 km/h 5 mph /  8.0 km/h 95 % 0 in /  0.0 mm
11:37 43.5 °F /  6.4 °C 42.3 °F /  5.7 °C 30.1 in /  1017.8 hPa SSW 2 mph /  3.2 km/h 5 mph /  8.0 km/h 95 % 0 in /  0.0 mm
11:42 43.7 °F /  6.5 °C 42.1 °F /  5.6 °C 30.1 in /  1017.8 hPa SW 3 mph /  4.8 km/h 5 mph /  8.0 km/h 94 % 0 in /  0.0 mm
11:47 43.9 °F /  6.6 °C 41.9 °F /  5.5 °C 30.1 in /  1017.5 hPa SSW 2 mph /  3.2 km/h 5 mph /  8.0 km/h 93 % 0 in /  0.0 mm
11:52 43.9 °F /  6.6 °C 41.9 °F /  5.5 °C 30.1 in /  1017.5 hPa SSW 1 mph /  1.6 km/h 5 mph /  8.0 km/h 93 % 0 in /  0.0 mm
11:57 44.2 °F /  6.8 °C 42.3 °F /  5.7 °C 30 in /  1017.2 hPa SSW 3 mph /  4.8 km/h 6 mph /  9.7 km/h 93 % 0 in /  0.0 mm
12:02 44.2 °F /  6.8 °C 42.1 °F /  5.6 °C 30 in /  1017.2 hPa South 3 mph /  4.8 km/h 7 mph /  11.3 km/h 92 % 0 in /  0.0 mm
12:07 44.4 °F /  6.9 °C 41.9 °F /  5.5 °C 30 in /  1017.2 hPa SSW 5 mph /  8.0 km/h 7 mph /  11.3 km/h 91 % 0 in /  0.0 mm
12:12 44.4 °F /  6.9 °C 41.9 °F /  5.5 °C 30 in /  1016.8 hPa SSW 4 mph /  6.4 km/h 8 mph /  12.9 km/h 91 % 0 in /  0.0 mm
12:17 44.6 °F /  7.0 °C 42.1 °F /  5.6 °C 30 in /  1016.8 hPa SSW 6 mph /  9.7 km/h 8 mph /  12.9 km/h 91 % 0 in /  0.0 mm
12:27 44.8 °F /  7.1 °C 42.3 °F /  5.7 °C 30 in /  1016.5 hPa SW 10 mph /  16.1 km/h 10 mph /  16.1 km/h 91 % 0 in /  0.0 mm
12:32 44.8 °F /  7.1 °C 42.3 °F /  5.7 °C 30 in /  1016.1 hPa SSW 5 mph /  8.0 km/h 8 mph /  12.9 km/h 91 % 0 in /  0.0 mm
12:37 44.8 °F /  7.1 °C 42.1 °F /  5.6 °C 30 in /  1016.1 hPa SW 8 mph /  12.9 km/h 10 mph /  16.1 km/h 90 % 0 in /  0.0 mm
12:42 44.8 °F /  7.1 °C 42.1 °F /  5.6 °C 30 in /  1016.1 hPa SSW 8 mph /  12.9 km/h 12 mph /  19.3 km/h 90 % 0 in /  0.0 mm
12:47 44.8 °F /  7.1 °C 42.1 °F /  5.6 °C 30 in /  1015.8 hPa SW 6 mph /  9.7 km/h 12 mph /  19.3 km/h 90 % 0 in /  0.0 mm
12:52 44.8 °F /  7.1 °C 42.3 °F /  5.7 °C 30 in /  1015.8 hPa SW 6 mph /  9.7 km/h 12 mph /  19.3 km/h 91 % 0 in /  0.0 mm
12:57 44.8 °F /  7.1 °C 42.3 °F /  5.7 °C 30 in /  1015.5 hPa SSW 4 mph /  6.4 km/h 12 mph /  19.3 km/h 91 % 0 in /  0.0 mm
13:02 44.6 °F /  7.0 °C 42.4 °F /  5.8 °C 30 in /  1015.5 hPa SSW 4 mph /  6.4 km/h 12 mph /  19.3 km/h 92 % 0 in /  0.0 mm
13:12 44.2 °F /  6.8 °C 42.3 °F /  5.7 °C 30 in /  1014.8 hPa SW 6 mph /  9.7 km/h 11 mph /  17.7 km/h 93 % 0.01 in /  0.3 mm
13:17 44.2 °F /  6.8 °C 42.3 °F /  5.7 °C 30 in /  1014.8 hPa SSW 5 mph /  8.0 km/h 9 mph /  14.5 km/h 93 % 0.01 in /  0.3 mm
13:22 44.1 °F /  6.7 °C 42.1 °F /  5.6 °C 30 in /  1014.4 hPa SW 7 mph /  11.3 km/h 12 mph /  19.3 km/h 93 % 0.01 in /  0.3 mm
13:27 43.9 °F /  6.6 °C 42.3 °F /  5.7 °C 30 in /  1014.4 hPa SSW 7 mph /  11.3 km/h 13 mph /  20.9 km/h 94 % 0.02 in /  0.5 mm
13:32 43.9 °F /  6.6 °C 42.3 °F /  5.7 °C 30 in /  1014.4 hPa SW 11 mph /  17.7 km/h 13 mph /  20.9 km/h 94 % 0.02 in /  0.5 mm
13:37 43.7 °F /  6.5 °C 42.4 °F /  5.8 °C 29.9 in /  1014.1 hPa SW 7 mph /  11.3 km/h 13 mph /  20.9 km/h 95 % 0.02 in /  0.5 mm
13:42 43.7 °F /  6.5 °C 42.4 °F /  5.8 °C 29.9 in /  1013.8 hPa SSW 7 mph /  11.3 km/h 12 mph /  19.3 km/h 95 % 0.02 in /  0.5 mm
13:47 43.7 °F /  6.5 °C 42.4 °F /  5.8 °C 29.9 in /  1013.8 hPa SSW 4 mph /  6.4 km/h 12 mph /  19.3 km/h 95 % 0.02 in /  0.5 mm
13:52 43.7 °F /  6.5 °C 42.6 °F /  5.9 °C 29.9 in /  1013.8 hPa SW 10 mph /  16.1 km/h 10 mph /  16.1 km/h 96 % 0.03 in /  0.8 mm
13:57 43.5 °F /  6.4 °C 42.4 °F /  5.8 °C 29.9 in /  1013.4 hPa SW 9 mph /  14.5 km/h 14 mph /  22.5 km/h 96 % 0.04 in /  1.0 mm
14:02 43.7 °F /  6.5 °C 42.6 °F /  5.9 °C 29.9 in /  1013.1 hPa SW 10 mph /  16.1 km/h 14 mph /  22.5 km/h 96 % 0.04 in /  1.0 mm
14:12 43.7 °F /  6.5 °C 42.6 °F /  5.9 °C 29.9 in /  1012.8 hPa SW 7 mph /  11.3 km/h 13 mph /  20.9 km/h 96 % 0.04 in /  1.0 mm
14:17 43.9 °F /  6.6 °C 42.8 °F /  6.0 °C 29.9 in /  1012.8 hPa SSW 5 mph /  8.0 km/h 12 mph /  19.3 km/h 96 % 0.04 in /  1.0 mm
14:22 43.9 °F /  6.6 °C 42.8 °F /  6.0 °C 29.9 in /  1012.4 hPa SSW 6 mph /  9.7 km/h 11 mph /  17.7 km/h 96 % 0.04 in /  1.0 mm
14:27 43.9 °F /  6.6 °C 42.8 °F /  6.0 °C 29.9 in /  1012.4 hPa SSW 6 mph /  9.7 km/h 11 mph /  17.7 km/h 96 % 0.04 in /  1.0 mm
14:32 44.1 °F /  6.7 °C 43 °F /  6.1 °C 29.9 in /  1012.1 hPa SSW 7 mph /  11.3 km/h 11 mph /  17.7 km/h 96 % 0.04 in /  1.0 mm
15:23 44.2 °F /  6.8 °C 43.2 °F /  6.2 °C 29.8 in /  1010.4 hPa South 8 mph /  12.9 km/h 11 mph /  17.7 km/h 96 % 0.03 in /  0.8 mm
15:32 44.4 °F /  6.9 °C 43.3 °F /  6.3 °C 29.8 in /  1009.7 hPa SSW 7 mph /  11.3 km/h 13 mph /  20.9 km/h 96 % 0.03 in /  0.8 mm
15:37 44.4 °F /  6.9 °C 43.3 °F /  6.3 °C 29.8 in /  1009.7 hPa SW 5 mph /  8.0 km/h 13 mph /  20.9 km/h 96 % 0.04 in /  1.0 mm
15:42 44.4 °F /  6.9 °C 43.3 °F /  6.3 °C 29.8 in /  1009.4 hPa SSW 10 mph /  16.1 km/h 14 mph /  22.5 km/h 96 % 0.03 in /  0.8 mm
15:52 44.4 °F /  6.9 °C 43.3 °F /  6.3 °C 29.8 in /  1009.0 hPa South 8 mph /  12.9 km/h 14 mph /  22.5 km/h 96 % 0.03 in /  0.8 mm
15:57 44.4 °F /  6.9 °C 43.3 °F /  6.3 °C 29.8 in /  1009.0 hPa SSW 8 mph /  12.9 km/h 15 mph /  24.1 km/h 96 % 0.03 in /  0.8 mm
16:02 44.6 °F /  7.0 °C 43.5 °F /  6.4 °C 29.8 in /  1008.7 hPa SSW 6 mph /  9.7 km/h 15 mph /  24.1 km/h 96 % 0.03 in /  0.8 mm
16:12 44.6 °F /  7.0 °C 43.5 °F /  6.4 °C 29.8 in /  1008.4 hPa SSW 13 mph /  20.9 km/h 17 mph /  27.4 km/h 96 % 0.02 in /  0.5 mm
16:17 44.6 °F /  7.0 °C 43.5 °F /  6.4 °C 29.8 in /  1008.4 hPa SW 7 mph /  11.3 km/h 17 mph /  27.4 km/h 96 % 0.02 in /  0.5 mm
16:22 44.8 °F /  7.1 °C 43.7 °F /  6.5 °C 29.8 in /  1008.0 hPa SSW 6 mph /  9.7 km/h 17 mph /  27.4 km/h 96 % 0.02 in /  0.5 mm
16:27 44.6 °F /  7.0 °C 43.5 °F /  6.4 °C 29.8 in /  1008.0 hPa South 11 mph /  17.7 km/h 16 mph /  25.7 km/h 96 % 0.02 in /  0.5 mm
16:32 44.8 °F /  7.1 °C 43.7 °F /  6.5 °C 29.8 in /  1008.0 hPa SSW 11 mph /  17.7 km/h 16 mph /  25.7 km/h 96 % 0.02 in /  0.5 mm
16:42 44.8 °F /  7.1 °C 43.5 °F /  6.4 °C 29.7 in /  1007.3 hPa South 13 mph /  20.9 km/h 18 mph /  29.0 km/h 95 % 0.02 in /  0.5 mm
16:52 44.8 °F /  7.1 °C 43.7 °F /  6.5 °C 29.7 in /  1007.3 hPa South 12 mph /  19.3 km/h 18 mph /  29.0 km/h 96 % 0.03 in /  0.8 mm
16:57 44.8 °F /  7.1 °C 43.7 °F /  6.5 °C 29.7 in /  1007.0 hPa SSW 12 mph /  19.3 km/h 18 mph /  29.0 km/h 96 % 0.03 in /  0.8 mm
17:02 44.8 °F /  7.1 °C 43.7 °F /  6.5 °C 29.7 in /  1006.7 hPa South 8 mph /  12.9 km/h 18 mph /  29.0 km/h 96 % 0.02 in /  0.5 mm
17:12 44.8 °F /  7.1 °C 43.7 °F /  6.5 °C 29.7 in /  1006.7 hPa South 8 mph /  12.9 km/h 17 mph /  27.4 km/h 96 % 0.03 in /  0.8 mm
17:17 45 °F /  7.2 °C 43.7 °F /  6.5 °C 29.7 in /  1006.3 hPa SSW 10 mph /  16.1 km/h 17 mph /  27.4 km/h 95 % 0.03 in /  0.8 mm
17:22 45 °F /  7.2 °C 43.7 °F /  6.5 °C 29.7 in /  1006.0 hPa South 10 mph /  16.1 km/h 20 mph /  32.2 km/h 95 % 0.04 in /  1.0 mm
17:32 45.1 °F /  7.3 °C 43.9 °F /  6.6 °C 29.7 in /  1005.6 hPa SSW 16 mph /  25.7 km/h 22 mph /  35.4 km/h 95 % 0.04 in /  1.0 mm
17:37 45.1 °F /  7.3 °C 43.9 °F /  6.6 °C 29.7 in /  1005.3 hPa SSW 12 mph /  19.3 km/h 23 mph /  37.0 km/h 95 % 0.03 in /  0.8 mm
17:42 45.1 °F /  7.3 °C 43.9 °F /  6.6 °C 29.7 in /  1005.0 hPa South 14 mph /  22.5 km/h 23 mph /  37.0 km/h 95 % 0.02 in /  0.5 mm
17:47 45 °F /  7.2 °C 43.7 °F /  6.5 °C 29.7 in /  1005.0 hPa SSW 16 mph /  25.7 km/h 21 mph /  33.8 km/h 95 % 0.02 in /  0.5 mm
17:52 45 °F /  7.2 °C 43.7 °F /  6.5 °C 29.7 in /  1005.0 hPa SSW 9 mph /  14.5 km/h 21 mph /  33.8 km/h 95 % 0.02 in /  0.5 mm
17:57 44.8 °F /  7.1 °C 43.5 °F /  6.4 °C 29.7 in /  1004.6 hPa South 12 mph /  19.3 km/h 21 mph /  33.8 km/h 95 % 0.02 in /  0.5 mm
18:02 44.8 °F /  7.1 °C 43.7 °F /  6.5 °C 29.7 in /  1004.3 hPa SSW 11 mph /  17.7 km/h 20 mph /  32.2 km/h 96 % 0.03 in /  0.8 mm
18:12 45 °F /  7.2 °C 43.9 °F /  6.6 °C 29.7 in /  1004.3 hPa SSW 14 mph /  22.5 km/h 24 mph /  38.6 km/h 96 % 0.03 in /  0.8 mm
18:17 45 °F /  7.2 °C 43.7 °F /  6.5 °C 29.6 in /  1003.9 hPa SSW 11 mph /  17.7 km/h 24 mph /  38.6 km/h 95 % 0.03 in /  0.8 mm
18:22 45 °F /  7.2 °C 43.7 °F /  6.5 °C 29.6 in /  1003.6 hPa SSW 19 mph /  30.6 km/h 21 mph /  33.8 km/h 95 % 0.03 in /  0.8 mm
18:27 45 °F /  7.2 °C 43.7 °F /  6.5 °C 29.6 in /  1003.6 hPa South 7 mph /  11.3 km/h 22 mph /  35.4 km/h 95 % 0.04 in /  1.0 mm
18:32 45 °F /  7.2 °C 43.7 °F /  6.5 °C 29.6 in /  1003.3 hPa SW 14 mph /  22.5 km/h 22 mph /  35.4 km/h 95 % 0.04 in /  1.0 mm
18:37 45 °F /  7.2 °C 43.9 °F /  6.6 °C 29.6 in /  1003.3 hPa SSW 17 mph /  27.4 km/h 22 mph /  35.4 km/h 96 % 0.05 in /  1.3 mm
18:42 45 °F /  7.2 °C 43.7 °F /  6.5 °C 29.6 in /  1002.9 hPa South 14 mph /  22.5 km/h 21 mph /  33.8 km/h 95 % 0.06 in /  1.5 mm
18:47 45 °F /  7.2 °C 43.7 °F /  6.5 °C 29.6 in /  1002.9 hPa SW 11 mph /  17.7 km/h 21 mph /  33.8 km/h 95 % 0.06 in /  1.5 mm
18:52 45 °F /  7.2 °C 43.7 °F /  6.5 °C 29.6 in /  1002.9 hPa SW 14 mph /  22.5 km/h 21 mph /  33.8 km/h 95 % 0.05 in /  1.3 mm
18:57 45.1 °F /  7.3 °C 43.9 °F /  6.6 °C 29.6 in /  1002.6 hPa SW 8 mph /  12.9 km/h 20 mph /  32.2 km/h 95 % 0.05 in /  1.3 mm
19:02 45.1 °F /  7.3 °C 43.9 °F /  6.6 °C 29.6 in /  1002.3 hPa SW 13 mph /  20.9 km/h 19 mph /  30.6 km/h 95 % 0.04 in /  1.0 mm
19:12 45.3 °F /  7.4 °C 44.1 °F /  6.7 °C 29.6 in /  1001.9 hPa SW 12 mph /  19.3 km/h 22 mph /  35.4 km/h 95 % 0.03 in /  0.8 mm
19:17 45.5 °F /  7.5 °C 44.4 °F /  6.9 °C 29.6 in /  1001.6 hPa SSW 13 mph /  20.9 km/h 22 mph /  35.4 km/h 96 % 0.02 in /  0.5 mm
19:22 45.9 °F /  7.7 °C 44.4 °F /  6.9 °C 29.6 in /  1001.6 hPa SSW 18 mph /  29.0 km/h 22 mph /  35.4 km/h 95 % 0.02 in /  0.5 mm
19:32 46.2 °F /  7.9 °C 44.8 °F /  7.1 °C 29.6 in /  1001.2 hPa WSW 15 mph /  24.1 km/h 25 mph /  40.2 km/h 95 % 0.02 in /  0.5 mm
19:42 47.1 °F /  8.4 °C 45.7 °F /  7.6 °C 29.6 in /  1000.9 hPa WSW 9 mph /  14.5 km/h 25 mph /  40.2 km/h 95 % 0.01 in /  0.3 mm
19:47 47.7 °F /  8.7 °C 46 °F /  7.8 °C 29.6 in /  1000.6 hPa SW 22 mph /  35.4 km/h 26 mph /  41.8 km/h 94 % 0.01 in /  0.3 mm
19:52 48 °F /  8.9 °C 46 °F /  7.8 °C 29.6 in /  1000.6 hPa SW 22 mph /  35.4 km/h 30 mph /  48.3 km/h 93 % 0.01 in /  0.3 mm
19:57 48.4 °F /  9.1 °C 46.4 °F /  8.0 °C 29.5 in /  1000.2 hPa WSW 32 mph /  51.5 km/h 33 mph /  53.1 km/h 93 % 0.01 in /  0.3 mm
20:02 49.1 °F /  9.5 °C 46 °F /  7.8 °C 29.6 in /  1000.6 hPa WSW 22 mph /  35.4 km/h 45 mph /  72.4 km/h 89 % 0.02 in /  0.5 mm
20:07 49.5 °F /  9.7 °C 44.8 °F /  7.1 °C 29.6 in /  1000.6 hPa West 14 mph /  22.5 km/h 45 mph /  72.4 km/h 84 % 0.02 in /  0.5 mm
20:17 50 °F /  10.0 °C 43.2 °F /  6.2 °C 29.6 in /  1001.2 hPa SW 22 mph /  35.4 km/h 44 mph /  70.8 km/h 77 % 0.01 in /  0.3 mm
20:22 49.6 °F /  9.8 °C 42.1 °F /  5.6 °C 29.6 in /  1001.2 hPa West 31 mph /  49.9 km/h 44 mph /  70.8 km/h 75 % 0.01 in /  0.3 mm
20:27 49.1 °F /  9.5 °C 42.3 °F /  5.7 °C 29.6 in /  1001.2 hPa West 29 mph /  46.7 km/h 44 mph /  70.8 km/h 77 % 0.01 in /  0.3 mm
20:32 48.6 °F /  9.2 °C 41.4 °F /  5.2 °C 29.6 in /  1001.6 hPa West 19 mph /  30.6 km/h 44 mph /  70.8 km/h 76 % 0.01 in /  0.3 mm
20:37 48 °F /  8.9 °C 41.2 °F /  5.1 °C 29.6 in /  1001.9 hPa WNW 21 mph /  33.8 km/h 44 mph /  70.8 km/h 77 % 0.01 in /  0.3 mm
20:42 47.8 °F /  8.8 °C 41 °F /  5.0 °C 29.6 in /  1001.9 hPa West 18 mph /  29.0 km/h 38 mph /  61.1 km/h 77 % 0.01 in /  0.3 mm
20:52 47.3 °F /  8.5 °C 40.1 °F /  4.5 °C 29.6 in /  1002.3 hPa West 26 mph /  41.8 km/h 36 mph /  57.9 km/h 76 % 0.01 in /  0.3 mm
21:02 46.9 °F /  8.3 °C 40.5 °F /  4.7 °C 29.6 in /  1002.3 hPa WSW 15 mph /  24.1 km/h 35 mph /  56.3 km/h 78 % 0 in /  0.0 mm
21:07 46.6 °F /  8.1 °C 40.5 °F /  4.7 °C 29.6 in /  1002.6 hPa WNW 8 mph /  12.9 km/h 37 mph /  59.5 km/h 79 % 0 in /  0.0 mm
21:17 46.2 °F /  7.9 °C 40.5 °F /  4.7 °C 29.6 in /  1002.9 hPa West 15 mph /  24.1 km/h 31 mph /  49.9 km/h 80 % 0 in /  0.0 mm
21:22 46 °F /  7.8 °C 40.5 °F /  4.7 °C 29.6 in /  1002.9 hPa West 18 mph /  29.0 km/h 31 mph /  49.9 km/h 81 % 0 in /  0.0 mm
21:32 45.9 °F /  7.7 °C 39.7 °F /  4.3 °C 29.6 in /  1002.9 hPa WNW 10 mph /  16.1 km/h 34 mph /  54.7 km/h 79 % 0 in /  0.0 mm
21:37 45.9 °F /  7.7 °C 39.7 °F /  4.3 °C 29.6 in /  1003.3 hPa WSW 20 mph /  32.2 km/h 36 mph /  57.9 km/h 79 % 0 in /  0.0 mm
21:42 45.7 °F /  7.6 °C 39.6 °F /  4.2 °C 29.6 in /  1002.9 hPa West 13 mph /  20.9 km/h 36 mph /  57.9 km/h 79 % 0 in /  0.0 mm
21:52 45.3 °F /  7.4 °C 39.2 °F /  4.0 °C 29.6 in /  1003.3 hPa West 18 mph /  29.0 km/h 38 mph /  61.1 km/h 79 % 0 in /  0.0 mm
21:57 45.3 °F /  7.4 °C 39.2 °F /  4.0 °C 29.6 in /  1003.6 hPa WSW 16 mph /  25.7 km/h 38 mph /  61.1 km/h 79 % 0 in /  0.0 mm
22:02 45.3 °F /  7.4 °C 38.8 °F /  3.8 °C 29.6 in /  1003.6 hPa WNW 12 mph /  19.3 km/h 35 mph /  56.3 km/h 78 % 0 in /  0.0 mm
22:12 45.1 °F /  7.3 °C 38.7 °F /  3.7 °C 29.6 in /  1003.9 hPa West 16 mph /  25.7 km/h 31 mph /  49.9 km/h 78 % 0 in /  0.0 mm
22:17 45 °F /  7.2 °C 38.8 °F /  3.8 °C 29.6 in /  1003.9 hPa West 19 mph /  30.6 km/h 31 mph /  49.9 km/h 79 % 0 in /  0.0 mm
22:22 44.8 °F /  7.1 °C 39 °F /  3.9 °C 29.6 in /  1003.9 hPa South 13 mph /  20.9 km/h 31 mph /  49.9 km/h 80 % 0 in /  0.0 mm
22:32 44.8 °F /  7.1 °C 39 °F /  3.9 °C 29.7 in /  1004.6 hPa West 7 mph /  11.3 km/h 32 mph /  51.5 km/h 80 % 0 in /  0.0 mm
22:37 44.4 °F /  6.9 °C 38.7 °F /  3.7 °C 29.7 in /  1004.6 hPa WSW 17 mph /  27.4 km/h 32 mph /  51.5 km/h 80 % 0 in /  0.0 mm
22:42 44.4 °F /  6.9 °C 37.9 °F /  3.3 °C 29.7 in /  1004.3 hPa West 25 mph /  40.2 km/h 32 mph /  51.5 km/h 78 % 0 in /  0.0 mm
22:52 44.2 °F /  6.8 °C 37.6 °F /  3.1 °C 29.7 in /  1004.6 hPa West 27 mph /  43.4 km/h 37 mph /  59.5 km/h 77 % 0 in /  0.0 mm
22:57 44.1 °F /  6.7 °C 37.4 °F /  3.0 °C 29.7 in /  1005.0 hPa WNW 13 mph /  20.9 km/h 37 mph /  59.5 km/h 77 % 0 in /  0.0 mm
23:02 43.9 °F /  6.6 °C 37.8 °F /  3.2 °C 29.7 in /  1005.0 hPa WSW 10 mph /  16.1 km/h 37 mph /  59.5 km/h 79 % 0 in /  0.0 mm
23:12 43.5 °F /  6.4 °C 35.8 °F /  2.1 °C 29.7 in /  1005.3 hPa West 17 mph /  27.4 km/h 27 mph /  43.4 km/h 74 % 0 in /  0.0 mm
23:17 43.5 °F /  6.4 °C 35.8 °F /  2.1 °C 29.7 in /  1005.3 hPa West 13 mph /  20.9 km/h 31 mph /  49.9 km/h 74 % 0 in /  0.0 mm
23:22 43.5 °F /  6.4 °C 35.8 °F /  2.1 °C 29.7 in /  1005.3 hPa WSW 16 mph /  25.7 km/h 31 mph /  49.9 km/h 74 % 0 in /  0.0 mm
23:27 43.5 °F /  6.4 °C 35.4 °F /  1.9 °C 29.7 in /  1005.3 hPa West 13 mph /  20.9 km/h 31 mph /  49.9 km/h 73 % 0 in /  0.0 mm
23:32 43.3 °F /  6.3 °C 34.9 °F /  1.6 °C 29.7 in /  1005.6 hPa WSW 11 mph /  17.7 km/h 41 mph /  66.0 km/h 72 % 0 in /  0.0 mm
23:37 43.3 °F /  6.3 °C 35.2 °F /  1.8 °C 29.7 in /  1005.6 hPa West 18 mph /  29.0 km/h 41 mph /  66.0 km/h 73 % 0 in /  0.0 mm
23:47 43 °F /  6.1 °C 36.7 °F /  2.6 °C 29.7 in /  1006.0 hPa West 9 mph /  14.5 km/h 27 mph /  43.4 km/h 78 % 0 in /  0.0 mm
23:52 42.8 °F /  6.0 °C 36.1 °F /  2.3 °C 29.7 in /  1006.0 hPa West 20 mph /  32.2 km/h 26 mph /  41.8 km/h 77 % 0 in /  0.0 mm
23:57 42.8 °F /  6.0 °C 35.4 °F /  1.9 °C 29.7 in /  1006.0 hPa WNW 23 mph /  37.0 km/h 32 mph /  51.5 km/h 75 % 0 in /  0.0 mm
Meteo18
Compliments of Weather Underground - 4 mb

Script developed by  Jim McMurry - jmcmurry@mwt.net Adapted for the template by  Wim van der Kuil - Leuven-Template.eu

You find our weather info also at:

European Weather Network

Weather Underground

Equipment we use:

Weather-station
Davis Vue

Weather-program
Meteohub

Weather-server
Raspberry PI 2 B+

Provider
1 and 1

Davis Vue

Meteohub

Raspberry PI 2 B+

1 and 1